createdAt,value
2023-03-24T12:12:51.535Z,99.99
2023-03-24T12:15:14.638Z,99.99
2023-03-24T12:16:07.777Z,99.99
2023-03-24T12:17:07.663Z,99.99
2023-03-24T12:25:28.932Z,99.99
2023-03-24T12:46:01.322Z,99.99
2023-03-24T12:49:48.769Z,99.29
2023-03-24T12:50:48.764Z,98.58
2023-03-24T12:51:48.740Z,98.82
2023-03-24T12:52:58.015Z,97.09
2023-03-24T12:53:48.733Z,94.35
2023-03-24T12:54:48.702Z,94.73
2023-03-24T12:55:49.015Z,95.98
2023-03-24T12:56:48.739Z,96.03
2023-03-24T12:57:48.638Z,93.82
2023-03-24T12:58:48.639Z,93.33
2023-03-24T12:59:48.627Z,91.51
2023-03-24T13:00:48.650Z,91.60
2023-03-24T13:01:48.612Z,90.45
2023-03-24T13:02:48.633Z,91.89
2023-03-24T13:03:48.581Z,91.80
2023-03-24T13:04:48.552Z,92.47
2023-03-24T13:05:48.714Z,91.02
2023-03-24T13:06:48.535Z,89.81
2023-03-24T13:07:48.521Z,89.09
2023-03-24T13:13:39.235Z,93.15
2023-03-24T13:14:39.228Z,93.05
2023-03-24T13:15:39.221Z,92.86
2023-03-24T13:16:39.252Z,90.79
2023-03-24T13:17:39.249Z,90.40
2023-03-24T13:18:39.180Z,89.39
2023-03-24T13:19:39.147Z,87.26
2023-03-24T13:20:39.128Z,85.78
2023-03-24T13:21:39.124Z,86.31
2023-03-24T13:22:39.152Z,86.60
2023-03-24T13:23:39.074Z,86.69
2023-03-24T13:24:39.097Z,87.41
2023-03-24T14:00:10.233Z,99.99
2023-03-24T14:01:10.223Z,99.99
2023-03-24T14:02:10.194Z,99.99
2023-03-24T14:03:10.265Z,99.99
2023-03-24T14:04:10.129Z,99.99
2023-03-24T14:05:10.133Z,99.35
